createdAt,value
2018-06-30T00:01:45.242Z,46.82
2018-06-30T00:04:16.163Z,46.93
2018-06-30T00:06:44.088Z,46.13
2018-06-30T00:09:11.960Z,45.78
2018-06-30T00:11:39.920Z,47.76
2018-06-30T00:14:07.873Z,48.33
2018-06-30T00:16:35.773Z,48.09
2018-06-30T00:19:03.684Z,48.63
2018-06-30T00:21:31.585Z,49.07
2018-06-30T00:23:59.452Z,48.77
2018-06-30T00:26:27.481Z,49.44
2018-06-30T00:28:55.509Z,49.60
2018-06-30T00:31:23.392Z,49.42
2018-06-30T00:33:51.310Z,49.56
2018-06-30T00:36:19.163Z,48.06
2018-06-30T00:38:47.097Z,49.83
2018-06-30T00:41:15.018Z,49.25
2018-06-30T00:43:42.820Z,48.17
2018-06-30T00:46:10.713Z,50.14
2018-06-30T00:48:38.662Z,48.23
2018-06-30T00:51:06.885Z,49.17
2018-06-30T00:53:34.800Z,49.03
2018-06-30T00:56:02.700Z,48.26
2018-06-30T00:58:30.626Z,48.44
2018-06-30T01:00:58.552Z,49.10
2018-06-30T01:03:26.535Z,51.75
2018-06-30T01:05:54.611Z,51.09
2018-06-30T01:08:22.456Z,51.91
2018-06-30T01:10:50.397Z,50.45
2018-06-30T01:13:18.534Z,49.79
2018-06-30T01:15:46.452Z,52.10
2018-06-30T01:18:14.313Z,49.88
2018-06-30T01:20:43.104Z,50.02
2018-06-30T01:23:11.199Z,52.85
2018-06-30T01:25:39.356Z,50.46
2018-06-30T01:28:07.181Z,50.24
2018-06-30T01:30:35.001Z,51.52
2018-06-30T01:33:02.855Z,52.38
2018-06-30T01:35:30.816Z,50.82
2018-06-30T01:37:58.903Z,51.02
2018-06-30T01:40:26.891Z,53.95
2018-06-30T01:42:55.009Z,50.94
2018-06-30T01:45:22.933Z,55.20
2018-06-30T01:47:50.867Z,53.54
2018-06-30T01:50:18.807Z,52.78
2018-06-30T01:52:46.669Z,53.95
2018-06-30T01:55:14.578Z,55.89
2018-06-30T01:57:42.458Z,52.72
2018-06-30T02:00:10.457Z,55.66
2018-06-30T02:02:38.326Z,53.89
2018-06-30T02:05:06.251Z,55.59
2018-06-30T02:07:34.149Z,54.56
2018-06-30T02:10:02.112Z,53.33
2018-06-30T02:12:30.025Z,52.50
2018-06-30T02:14:58.028Z,54.42
2018-06-30T02:17:26.230Z,55.73
2018-06-30T02:19:54.120Z,54.60
2018-06-30T02:22:22.057Z,56.11
2018-06-30T02:24:49.945Z,53.76
2018-06-30T02:27:17.774Z,54.69
2018-06-30T02:29:45.645Z,54.08
2018-06-30T02:32:13.603Z,56.26
2018-06-30T02:34:41.481Z,56.25
2018-06-30T02:37:09.394Z,57.76
2018-06-30T02:39:37.296Z,57.66
2018-06-30T02:42:05.241Z,57.39
2018-06-30T02:44:33.125Z,57.16
2018-06-30T02:47:00.993Z,58.23
2018-06-30T02:49:28.922Z,56.32
2018-06-30T02:51:56.785Z,56.56
2018-06-30T02:54:24.747Z,56.17
2018-06-30T02:56:52.653Z,54.59
2018-06-30T02:59:20.902Z,54.19
2018-06-30T03:01:49.101Z,57.25
2018-06-30T03:04:16.948Z,58.93
2018-06-30T03:06:44.799Z,55.81
2018-06-30T03:09:12.673Z,57.82
2018-06-30T03:11:40.801Z,57.14
2018-06-30T03:14:08.707Z,56.18
2018-06-30T03:16:39.155Z,58.26
2018-06-30T03:19:07.192Z,58.42
2018-06-30T03:21:35.200Z,58.18
2018-06-30T03:24:03.109Z,57.27
2018-06-30T03:26:31.034Z,58.00
2018-06-30T03:28:58.875Z,56.64
2018-06-30T03:31:26.763Z,59.89
2018-06-30T03:33:54.602Z,59.69
2018-06-30T03:36:22.604Z,59.21
2018-06-30T03:38:50.442Z,62.29
2018-06-30T03:41:18.402Z,61.01
2018-06-30T03:43:46.277Z,60.81
2018-06-30T03:46:14.170Z,60.46
2018-06-30T03:48:42.005Z,60.29
2018-06-30T03:51:09.888Z,58.38
2018-06-30T03:53:37.762Z,61.36
2018-06-30T03:56:05.789Z,59.28
2018-06-30T03:58:33.673Z,60.38
2018-06-30T04:01:01.562Z,62.57
2018-06-30T04:03:29.526Z,61.02
2018-06-30T04:05:57.369Z,59.75
2018-06-30T04:08:25.263Z,60.60
2018-06-30T04:10:53.157Z,59.52
2018-06-30T04:13:21.090Z,61.28
2018-06-30T04:15:49.009Z,60.64
2018-06-30T04:18:16.969Z,59.26
2018-06-30T04:20:44.888Z,61.02
2018-06-30T04:23:12.767Z,60.64
2018-06-30T04:25:40.630Z,62.12
2018-06-30T04:28:08.597Z,60.39
2018-06-30T04:30:36.461Z,61.09
2018-06-30T04:33:05.000Z,61.85
2018-06-30T04:35:32.885Z,60.46
2018-06-30T04:38:00.741Z,61.47
2018-06-30T04:40:28.594Z,61.51
2018-06-30T04:42:56.536Z,61.19
2018-06-30T04:45:24.398Z,60.26
2018-06-30T04:47:52.200Z,61.15
2018-06-30T04:50:20.121Z,60.34
2018-06-30T04:52:47.921Z,59.66
2018-06-30T04:55:15.889Z,59.17
2018-06-30T04:57:43.842Z,56.71
2018-06-30T05:00:11.674Z,54.73
2018-06-30T05:02:39.585Z,53.35
2018-06-30T05:05:07.481Z,50.58
2018-06-30T05:07:35.540Z,49.97
2018-06-30T05:10:04.084Z,47.15
2018-06-30T05:12:31.925Z,45.64
2018-06-30T05:14:59.810Z,44.17
2018-06-30T05:17:27.972Z,42.52
2018-06-30T05:19:55.902Z,41.10
2018-06-30T05:22:23.849Z,39.56
2018-06-30T05:24:51.732Z,38.62
2018-06-30T05:27:19.557Z,37.66
2018-06-30T05:29:47.453Z,36.43
2018-06-30T05:32:15.378Z,35.55
2018-06-30T05:34:43.222Z,34.55
2018-06-30T05:37:11.074Z,34.70
2018-06-30T05:39:38.930Z,33.90
2018-06-30T05:42:06.828Z,32.51
2018-06-30T05:44:34.884Z,31.82
2018-06-30T05:47:02.765Z,31.65
2018-06-30T05:49:30.609Z,30.96
2018-06-30T05:51:58.477Z,30.64
2018-06-30T05:54:26.423Z,30.83
2018-06-30T05:56:54.304Z,30.27
2018-06-30T05:59:23.920Z,30.51
2018-06-30T06:01:51.881Z,30.77
2018-06-30T06:04:20.273Z,32.21
2018-06-30T06:06:48.224Z,32.80
2018-06-30T06:09:16.073Z,33.38
2018-06-30T06:11:43.937Z,33.68
2018-06-30T06:14:11.782Z,33.86
2018-06-30T06:16:39.613Z,33.83
2018-06-30T06:19:08.137Z,34.54
2018-06-30T06:21:36.149Z,34.79
2018-06-30T06:24:04.406Z,35.41
2018-06-30T06:26:32.395Z,35.75
2018-06-30T06:29:00.233Z,35.06
2018-06-30T06:31:28.156Z,35.39
2018-06-30T06:33:56.063Z,35.75
2018-06-30T06:36:24.012Z,35.62
2018-06-30T06:38:51.968Z,35.68
2018-06-30T06:41:20.144Z,35.54
2018-06-30T06:43:48.062Z,35.92
2018-06-30T06:46:15.957Z,35.90
2018-06-30T06:48:44.033Z,37.19
2018-06-30T06:51:11.922Z,37.12
2018-06-30T06:53:39.789Z,38.00
2018-06-30T06:56:07.673Z,37.71
2018-06-30T06:58:35.537Z,37.75
2018-06-30T07:01:04.153Z,38.02
2018-06-30T07:03:31.997Z,38.29
2018-06-30T07:05:59.941Z,37.85
2018-06-30T07:08:27.829Z,37.16
2018-06-30T07:10:55.713Z,37.58
2018-06-30T07:13:23.761Z,38.03
2018-06-30T07:15:51.675Z,38.30
2018-06-30T07:18:19.580Z,38.47
2018-06-30T07:20:47.508Z,38.24
2018-06-30T07:23:15.403Z,39.07
2018-06-30T07:25:43.301Z,39.77
2018-06-30T07:28:11.229Z,39.20
2018-06-30T07:30:39.183Z,39.37
2018-06-30T07:33:07.265Z,39.58
2018-06-30T07:35:35.169Z,39.91
2018-06-30T07:38:03.329Z,39.53
2018-06-30T07:40:31.272Z,39.62
2018-06-30T07:42:59.192Z,39.69
2018-06-30T07:45:27.059Z,39.08
2018-06-30T07:47:55.601Z,39.53
2018-06-30T07:50:23.591Z,40.04
2018-06-30T07:52:51.451Z,39.77
2018-06-30T07:55:19.391Z,40.15
2018-06-30T07:57:47.201Z,40.29
2018-06-30T08:00:15.169Z,40.90
2018-06-30T08:02:43.109Z,41.24
2018-06-30T08:05:11.037Z,40.60
2018-06-30T08:07:38.903Z,41.07
2018-06-30T08:10:06.837Z,41.26
2018-06-30T08:12:34.700Z,40.98
2018-06-30T08:15:02.575Z,41.05
2018-06-30T08:17:30.485Z,41.17
2018-06-30T08:19:58.476Z,41.33
2018-06-30T08:22:26.362Z,41.34
2018-06-30T08:24:54.239Z,41.28
2018-06-30T08:27:22.200Z,40.70
2018-06-30T08:29:50.180Z,40.70
2018-06-30T08:32:18.146Z,41.35
2018-06-30T08:34:46.057Z,41.45
2018-06-30T08:37:14.242Z,40.98
2018-06-30T08:39:42.120Z,40.69
2018-06-30T08:42:10.017Z,40.11
2018-06-30T08:44:37.998Z,40.21
2018-06-30T08:47:05.898Z,39.10
2018-06-30T08:49:34.249Z,38.67
2018-06-30T08:52:02.578Z,38.94
2018-06-30T08:54:31.107Z,39.01
2018-06-30T08:56:59.037Z,39.07
2018-06-30T08:59:26.929Z,37.50
2018-06-30T09:01:54.842Z,37.62
2018-06-30T09:04:22.726Z,37.33
2018-06-30T09:06:51.792Z,37.32
2018-06-30T09:09:19.709Z,37.97
2018-06-30T09:11:54.409Z,37.21
2018-06-30T09:14:27.820Z,37.79
2018-06-30T09:16:55.790Z,37.49
2018-06-30T09:19:23.861Z,37.85
2018-06-30T09:21:53.330Z,37.14
2018-06-30T09:24:21.293Z,35.61
2018-06-30T09:26:49.184Z,36.44
2018-06-30T09:29:17.033Z,36.79
2018-06-30T09:31:44.896Z,36.30
2018-06-30T09:34:12.863Z,35.51
2018-06-30T09:36:40.670Z,34.63
2018-06-30T09:39:10.012Z,34.63
2018-06-30T09:41:38.205Z,34.84
2018-06-30T09:44:06.632Z,34.70
2018-06-30T09:46:34.737Z,34.67
2018-06-30T09:49:02.590Z,34.15
2018-06-30T09:51:30.472Z,33.83
2018-06-30T09:53:58.420Z,33.28
2018-06-30T09:56:26.273Z,31.14
2018-06-30T09:58:54.181Z,28.91
2018-06-30T10:01:22.065Z,27.41
2018-06-30T10:03:49.925Z,26.38
2018-06-30T10:06:17.845Z,24.76
2018-06-30T10:08:45.789Z,24.13
2018-06-30T10:11:13.669Z,21.99
2018-06-30T10:13:41.485Z,21.73
2018-06-30T10:16:09.355Z,21.66
2018-06-30T10:18:37.225Z,19.08
2018-06-30T10:21:05.208Z,19.43
2018-06-30T10:23:33.050Z,19.08
2018-06-30T10:26:00.972Z,18.35
2018-06-30T10:28:28.821Z,17.07
2018-06-30T10:30:56.663Z,16.28
2018-06-30T10:33:24.480Z,16.85
2018-06-30T10:35:52.372Z,16.43
2018-06-30T10:38:20.185Z,15.54
2018-06-30T10:40:48.106Z,16.23
2018-06-30T10:43:15.933Z,16.27
2018-06-30T10:45:43.814Z,15.05
2018-06-30T10:48:11.710Z,14.69
2018-06-30T10:50:39.601Z,15.03
2018-06-30T10:53:07.461Z,14.75
2018-06-30T10:55:35.328Z,13.87
2018-06-30T10:58:03.340Z,14.12
2018-06-30T11:00:31.522Z,13.41
2018-06-30T11:02:59.260Z,14.05
2018-06-30T11:05:27.161Z,14.34
2018-06-30T11:07:55.338Z,14.14
2018-06-30T11:10:23.189Z,14.00
2018-06-30T11:12:51.049Z,13.91
2018-06-30T11:15:19.068Z,13.55
2018-06-30T11:17:46.980Z,13.49
2018-06-30T11:20:15.001Z,13.68
2018-06-30T11:22:42.802Z,14.48
2018-06-30T11:25:10.663Z,13.96
2018-06-30T11:27:38.591Z,14.11
2018-06-30T11:30:06.542Z,12.94
2018-06-30T11:32:34.853Z,13.27
2018-06-30T11:35:02.815Z,12.64
2018-06-30T11:37:31.253Z,13.67
2018-06-30T11:39:59.109Z,13.39
2018-06-30T11:42:27.045Z,13.84
2018-06-30T11:44:55.006Z,13.65
2018-06-30T11:47:22.925Z,13.68
2018-06-30T11:49:50.745Z,13.24
2018-06-30T11:52:20.943Z,12.87
2018-06-30T11:54:53.324Z,13.34
2018-06-30T11:57:25.604Z,13.18
2018-06-30T11:59:55.287Z,12.89
2018-06-30T12:02:28.017Z,13.25
2018-06-30T12:04:57.984Z,13.71
2018-06-30T12:07:25.884Z,14.45
2018-06-30T12:09:54.796Z,12.50
2018-06-30T12:12:22.688Z,12.16
2018-06-30T12:14:50.582Z,12.78
2018-06-30T12:17:18.520Z,13.42
2018-06-30T12:19:46.433Z,13.29
2018-06-30T12:22:14.326Z,14.11
2018-06-30T12:24:42.198Z,13.45
2018-06-30T12:27:10.180Z,12.71
2018-06-30T12:29:37.970Z,13.37
2018-06-30T12:32:05.890Z,13.07
2018-06-30T12:34:33.758Z,13.75
2018-06-30T12:37:01.666Z,13.31
2018-06-30T12:39:29.520Z,12.73
2018-06-30T12:41:57.453Z,14.35
2018-06-30T12:44:25.298Z,13.67
2018-06-30T12:46:53.175Z,13.18
2018-06-30T12:49:21.047Z,14.10
2018-06-30T12:51:49.017Z,14.02
2018-06-30T12:54:16.969Z,14.20
2018-06-30T12:56:44.837Z,14.08
2018-06-30T12:59:12.721Z,13.79
2018-06-30T13:01:40.610Z,14.22
2018-06-30T13:04:08.572Z,14.53
2018-06-30T13:06:36.461Z,14.13
2018-06-30T13:09:09.519Z,15.31
2018-06-30T13:11:37.413Z,15.69
2018-06-30T13:14:05.967Z,15.04
2018-06-30T13:16:34.213Z,15.88
2018-06-30T13:19:02.263Z,15.83
2018-06-30T13:21:30.145Z,16.36
2018-06-30T13:23:58.079Z,16.27
2018-06-30T13:26:26.029Z,17.33
2018-06-30T13:28:53.922Z,17.65
2018-06-30T13:31:21.769Z,17.80
2018-06-30T13:33:49.622Z,18.47
2018-06-30T13:36:17.554Z,18.60
2018-06-30T13:38:45.453Z,18.58
2018-06-30T13:41:13.377Z,18.23
2018-06-30T13:43:41.332Z,18.36
2018-06-30T13:46:09.483Z,19.51
2018-06-30T13:48:37.377Z,19.17
2018-06-30T13:51:05.361Z,20.03
2018-06-30T13:53:33.241Z,19.93
2018-06-30T13:56:01.169Z,20.12
2018-06-30T13:58:29.087Z,19.64
2018-06-30T14:00:57.037Z,19.31
2018-06-30T14:03:24.882Z,20.29
2018-06-30T14:05:52.762Z,19.25
2018-06-30T14:08:20.653Z,19.87
2018-06-30T14:10:48.509Z,19.54
2018-06-30T14:13:16.786Z,19.85
2018-06-30T14:15:44.754Z,19.60
2018-06-30T14:18:12.676Z,20.91
2018-06-30T14:20:40.537Z,21.13
2018-06-30T14:23:08.401Z,21.40
2018-06-30T14:25:36.344Z,19.98
2018-06-30T14:28:04.420Z,20.39
2018-06-30T14:30:32.349Z,21.13
2018-06-30T14:33:00.197Z,21.38
2018-06-30T14:35:28.069Z,20.61
2018-06-30T14:37:56.022Z,21.21
2018-06-30T14:40:23.954Z,21.07
2018-06-30T14:42:51.773Z,21.81
2018-06-30T14:45:19.633Z,22.21
2018-06-30T14:47:47.706Z,21.64
2018-06-30T14:50:15.683Z,22.08
2018-06-30T14:52:43.653Z,21.55
2018-06-30T14:55:11.569Z,21.82
2018-06-30T14:57:39.416Z,22.39
2018-06-30T15:00:08.511Z,22.20
2018-06-30T15:02:36.566Z,22.78
2018-06-30T15:05:05.885Z,23.15
2018-06-30T15:07:33.805Z,22.37
2018-06-30T15:10:01.745Z,22.68
2018-06-30T15:12:29.657Z,22.56
2018-06-30T15:14:57.562Z,22.45
2018-06-30T15:17:25.453Z,22.92
2018-06-30T15:19:53.385Z,23.46
2018-06-30T15:22:21.282Z,22.53
2018-06-30T15:24:49.330Z,22.89
2018-06-30T15:27:17.430Z,22.77
2018-06-30T15:29:45.365Z,22.46
2018-06-30T15:32:13.237Z,22.46
2018-06-30T15:34:41.627Z,22.65
2018-06-30T15:37:09.525Z,22.02
2018-06-30T15:39:37.487Z,22.42
2018-06-30T15:42:05.525Z,22.57
2018-06-30T15:44:33.425Z,22.73
2018-06-30T15:47:01.445Z,22.72
2018-06-30T15:49:29.376Z,22.18
2018-06-30T15:51:57.341Z,22.01
2018-06-30T15:54:25.150Z,21.63
2018-06-30T15:56:53.229Z,21.89
2018-06-30T15:59:21.150Z,21.95
2018-06-30T16:01:48.987Z,20.85
2018-06-30T16:04:16.919Z,21.24
2018-06-30T16:06:44.823Z,21.06
2018-06-30T16:09:12.760Z,21.77
2018-06-30T16:11:40.953Z,21.44
2018-06-30T16:14:09.117Z,22.33
2018-06-30T16:16:37.613Z,21.25
2018-06-30T16:19:05.530Z,20.58
2018-06-30T16:21:33.497Z,21.52
2018-06-30T16:24:01.423Z,20.88
2018-06-30T16:26:29.385Z,20.25
2018-06-30T16:28:57.590Z,21.19
2018-06-30T16:31:25.469Z,20.53
2018-06-30T16:33:53.458Z,20.77
2018-06-30T16:36:21.753Z,20.85
2018-06-30T16:38:56.165Z,20.60
2018-06-30T16:41:30.394Z,20.44
2018-06-30T16:43:58.389Z,20.61
2018-06-30T16:46:26.213Z,20.43
2018-06-30T16:48:54.101Z,20.67
2018-06-30T16:51:21.989Z,20.23
2018-06-30T16:53:49.958Z,19.85
2018-06-30T16:56:17.994Z,20.54
2018-06-30T16:58:45.914Z,20.05
2018-06-30T17:01:13.783Z,20.24
2018-06-30T17:03:42.545Z,20.08
2018-06-30T17:06:11.133Z,20.21
2018-06-30T17:08:39.076Z,20.71
2018-06-30T17:11:07.014Z,19.02
2018-06-30T17:13:35.051Z,18.71
2018-06-30T17:16:02.992Z,18.65
2018-06-30T17:18:31.034Z,18.71
2018-06-30T17:20:59.037Z,18.95
2018-06-30T17:23:31.387Z,19.29
2018-06-30T17:25:59.623Z,18.84
2018-06-30T17:28:29.219Z,19.15
2018-06-30T17:30:57.213Z,20.10
2018-06-30T17:33:25.132Z,19.73
2018-06-30T17:35:52.965Z,20.13
2018-06-30T17:38:20.795Z,19.14
2018-06-30T17:40:48.713Z,18.52
2018-06-30T17:43:16.597Z,18.66
2018-06-30T17:45:44.492Z,18.96
2018-06-30T17:48:12.394Z,19.61
2018-06-30T17:50:40.509Z,19.74
2018-06-30T17:53:08.897Z,18.81
2018-06-30T17:55:37.977Z,18.87
2018-06-30T17:58:06.169Z,19.21
2018-06-30T18:00:34.049Z,18.89
2018-06-30T18:03:02.762Z,19.32
2018-06-30T18:05:30.582Z,20.24
2018-06-30T18:07:58.419Z,19.59
2018-06-30T18:10:26.340Z,19.31
2018-06-30T18:12:54.257Z,19.61
2018-06-30T18:15:22.297Z,19.95
2018-06-30T18:17:50.249Z,19.28
2018-06-30T18:20:18.631Z,19.96
2018-06-30T18:22:46.806Z,19.86
2018-06-30T18:25:14.692Z,19.75
2018-06-30T18:27:42.568Z,20.63
2018-06-30T18:30:10.505Z,20.45
2018-06-30T18:32:38.519Z,20.83
2018-06-30T18:35:07.137Z,20.92
2018-06-30T18:37:35.077Z,20.91
2018-06-30T18:40:03.504Z,20.95
2018-06-30T18:42:31.747Z,21.23
2018-06-30T18:44:59.869Z,21.12
2018-06-30T18:47:27.750Z,21.00
2018-06-30T18:49:55.643Z,20.99
2018-06-30T18:52:23.593Z,20.94
2018-06-30T18:54:51.449Z,20.88
2018-06-30T18:57:19.293Z,21.98
2018-06-30T18:59:47.193Z,22.30
2018-06-30T19:02:15.360Z,22.09
2018-06-30T19:04:44.190Z,22.75
2018-06-30T19:07:12.049Z,22.40
2018-06-30T19:09:40.410Z,22.05
2018-06-30T19:12:08.927Z,22.60
2018-06-30T19:14:36.818Z,22.85
2018-06-30T19:17:04.949Z,23.33
2018-06-30T19:19:32.806Z,23.61
2018-06-30T19:22:01.071Z,24.03
2018-06-30T19:24:31.598Z,23.51
2018-06-30T19:27:00.213Z,24.34
2018-06-30T19:29:28.320Z,24.26
2018-06-30T19:31:56.397Z,24.48
2018-06-30T19:34:25.203Z,24.06
2018-06-30T19:36:53.588Z,24.28
2018-06-30T19:39:21.520Z,25.07
2018-06-30T19:41:51.497Z,25.30
2018-06-30T19:44:23.340Z,25.16
2018-06-30T19:46:51.317Z,25.11
2018-06-30T19:49:19.577Z,25.63
2018-06-30T19:51:47.585Z,25.73
2018-06-30T19:54:15.483Z,25.35
2018-06-30T19:56:43.551Z,25.50
2018-06-30T19:59:15.268Z,25.28
2018-06-30T20:01:43.216Z,25.31
2018-06-30T20:04:12.377Z,26.06
2018-06-30T20:06:41.652Z,26.11
2018-06-30T20:09:11.292Z,26.26
2018-06-30T20:11:39.385Z,26.12
2018-06-30T20:14:13.910Z,26.56
2018-06-30T20:16:44.363Z,26.59
2018-06-30T20:19:12.699Z,26.46
2018-06-30T20:21:41.128Z,26.22
2018-06-30T20:24:09.036Z,26.72
2018-06-30T20:26:44.175Z,26.61
2018-06-30T20:29:14.722Z,27.76
2018-06-30T20:31:42.625Z,27.05
2018-06-30T20:34:10.578Z,28.09
2018-06-30T20:36:39.221Z,27.48
2018-06-30T20:39:09.990Z,27.47
2018-06-30T20:41:38.741Z,28.35
2018-06-30T20:44:07.538Z,27.96
2018-06-30T20:46:35.441Z,28.47
2018-06-30T20:49:03.860Z,29.26
2018-06-30T20:51:34.560Z,29.20
2018-06-30T20:54:02.575Z,29.18
2018-06-30T20:56:31.237Z,29.14
2018-06-30T20:58:59.165Z,29.08
2018-06-30T21:01:27.215Z,29.55
2018-06-30T21:03:55.007Z,29.68
2018-06-30T21:06:22.898Z,29.89
2018-06-30T21:08:50.826Z,29.90
2018-06-30T21:11:19.290Z,30.17
2018-06-30T21:13:47.138Z,30.23
2018-06-30T21:16:16.099Z,30.28
2018-06-30T21:18:44.354Z,30.42
2018-06-30T21:21:22.252Z,30.95
2018-06-30T21:23:51.309Z,31.21
2018-06-30T21:26:19.410Z,31.20
2018-06-30T21:28:47.365Z,30.95
2018-06-30T21:31:15.219Z,31.12
2018-06-30T21:33:43.092Z,31.18
2018-06-30T21:36:11.117Z,31.61
2018-06-30T21:38:39.085Z,32.16
2018-06-30T21:41:07.145Z,32.00
2018-06-30T21:43:34.989Z,31.90
2018-06-30T21:46:02.837Z,32.28
2018-06-30T21:48:30.722Z,32.35
2018-06-30T21:50:59.280Z,32.88
2018-06-30T21:53:27.739Z,33.20
2018-06-30T21:55:55.777Z,32.54
2018-06-30T21:58:23.640Z,33.85
2018-06-30T22:00:57.291Z,32.94
2018-06-30T22:03:26.478Z,34.29
2018-06-30T22:05:55.777Z,33.30
2018-06-30T22:08:26.559Z,33.54
2018-06-30T22:10:54.758Z,34.17
2018-06-30T22:13:22.853Z,33.59
2018-06-30T22:15:50.805Z,33.95
2018-06-30T22:18:18.916Z,34.33
2018-06-30T22:20:46.892Z,33.74
2018-06-30T22:23:14.744Z,34.21
2018-06-30T22:25:42.593Z,34.45
2018-06-30T22:28:10.501Z,34.59
2018-06-30T22:30:38.471Z,34.52
2018-06-30T22:33:06.312Z,34.63
2018-06-30T22:35:34.233Z,34.81
2018-06-30T22:38:02.129Z,35.61
2018-06-30T22:40:29.993Z,34.64
2018-06-30T22:42:57.954Z,34.90
2018-06-30T22:45:25.952Z,33.92
2018-06-30T22:47:53.875Z,33.97
2018-06-30T22:50:21.790Z,34.50
2018-06-30T22:52:49.756Z,35.70
2018-06-30T22:55:17.681Z,34.91
2018-06-30T22:57:45.585Z,35.95
2018-06-30T23:00:16.210Z,35.49
2018-06-30T23:02:44.149Z,35.75
2018-06-30T23:05:12.085Z,36.69
2018-06-30T23:07:40.064Z,37.19
2018-06-30T23:10:09.933Z,36.75
2018-06-30T23:12:37.921Z,36.38
2018-06-30T23:15:06.369Z,36.82
2018-06-30T23:17:34.271Z,38.32
2018-06-30T23:20:02.358Z,37.51
2018-06-30T23:23:08.054Z,38.97
2018-06-30T23:25:36.515Z,39.08
2018-06-30T23:28:04.561Z,39.06
2018-06-30T23:30:32.786Z,38.68
2018-06-30T23:33:00.685Z,38.53
2018-06-30T23:35:29.580Z,39.12
2018-06-30T23:37:58.554Z,39.07
2018-06-30T23:40:26.586Z,37.99
2018-06-30T23:42:54.570Z,39.15
2018-06-30T23:45:22.886Z,39.28
2018-06-30T23:47:51.633Z,39.66
2018-06-30T23:50:19.931Z,39.50
2018-06-30T23:52:47.930Z,39.56
2018-06-30T23:55:15.896Z,39.82
2018-06-30T23:57:43.841Z,39.44
